sensor_id;sensor_type;location;lat;lon;timestamp;temperature;humidity
37594;DHT22;23441;50.856;6.076;2023-02-26T00:01:18;-0.60;99.90
37594;DHT22;23441;50.856;6.076;2023-02-26T00:03:47;-0.70;99.90
37594;DHT22;23441;50.856;6.076;2023-02-26T00:06:13;-0.70;99.90
37594;DHT22;23441;50.856;6.076;2023-02-26T00:08:39;-0.80;99.90
37594;DHT22;23441;50.856;6.076;2023-02-26T00:11:09;-0.70;99.90
37594;DHT22;23441;50.856;6.076;2023-02-26T00:13:35;-0.80;99.90
37594;DHT22;23441;50.856;6.076;2023-02-26T00:16:03;-0.80;99.90
37594;DHT22;23441;50.856;6.076;2023-02-26T00:18:30;-0.90;99.90
37594;DHT22;23441;50.856;6.076;2023-02-26T00:20:56;-1.00;99.90
37594;DHT22;23441;50.856;6.076;2023-02-26T00:23:22;-1.00;99.90
37594;DHT22;23441;50.856;6.076;2023-02-26T00:25:49;-1.00;99.90
37594;DHT22;23441;50.856;6.076;2023-02-26T00:28:14;-1.00;99.90
37594;DHT22;23441;50.856;6.076;2023-02-26T00:30:40;-1.10;99.90
37594;DHT22;23441;50.856;6.076;2023-02-26T00:33:06;-1.00;99.90
37594;DHT22;23441;50.856;6.076;2023-02-26T00:35:32;-1.00;99.90
37594;DHT22;23441;50.856;6.076;2023-02-26T00:38:04;-1.00;99.90
37594;DHT22;23441;50.856;6.076;2023-02-26T00:42:59;-1.00;99.90
37594;DHT22;23441;50.856;6.076;2023-02-26T00:45:25;-1.00;99.90
37594;DHT22;23441;50.856;6.076;2023-02-26T00:47:54;-1.00;99.90
37594;DHT22;23441;50.856;6.076;2023-02-26T00:50:25;-1.00;99.90
37594;DHT22;23441;50.856;6.076;2023-02-26T00:55:29;-0.90;99.90
37594;DHT22;23441;50.856;6.076;2023-02-26T00:57:55;-0.90;99.90
37594;DHT22;23441;50.856;6.076;2023-02-26T01:00:21;-0.80;99.90
37594;DHT22;23441;50.856;6.076;2023-02-26T01:02:47;-0.70;99.90
37594;DHT22;23441;50.856;6.076;2023-02-26T01:05:13;-0.70;99.90
37594;DHT22;23441;50.856;6.076;2023-02-26T01:07:44;-0.70;99.90
37594;DHT22;23441;50.856;6.076;2023-02-26T01:10:11;-0.60;99.90
37594;DHT22;23441;50.856;6.076;2023-02-26T01:12:37;-0.60;99.90
37594;DHT22;23441;50.856;6.076;2023-02-26T01:15:04;-0.60;99.90
37594;DHT22;23441;50.856;6.076;2023-02-26T01:18:15;-0.60;99.90
37594;DHT22;23441;50.856;6.076;2023-02-26T01:20:45;-0.50;99.90
37594;DHT22;23441;50.856;6.076;2023-02-26T01:23:18;-0.40;99.90
37594;DHT22;23441;50.856;6.076;2023-02-26T01:25:50;-0.40;99.90
37594;DHT22;23441;50.856;6.076;2023-02-26T01:28:19;-0.40;99.90
37594;DHT22;23441;50.856;6.076;2023-02-26T01:30:46;-0.40;99.90
37594;DHT22;23441;50.856;6.076;2023-02-26T01:33:24;-0.30;99.90
37594;DHT22;23441;50.856;6.076;2023-02-26T01:43:40;-0.30;99.90
37594;DHT22;23441;50.856;6.076;2023-02-26T01:48:51;-0.30;99.90
37594;DHT22;23441;50.856;6.076;2023-02-26T01:51:48;-0.20;99.90
37594;DHT22;23441;50.856;6.076;2023-02-26T01:54:17;-0.20;99.90
37594;DHT22;23441;50.856;6.076;2023-02-26T01:56:44;-0.20;99.90
37594;DHT22;23441;50.856;6.076;2023-02-26T01:59:14;-0.20;99.90
37594;DHT22;23441;50.856;6.076;2023-02-26T02:01:40;-0.20;99.90
37594;DHT22;23441;50.856;6.076;2023-02-26T02:04:09;-0.10;99.90
37594;DHT22;23441;50.856;6.076;2023-02-26T02:06:35;-0.10;99.90
37594;DHT22;23441;50.856;6.076;2023-02-26T02:09:04;-0.20;99.90
37594;DHT22;23441;50.856;6.076;2023-02-26T02:11:31;-0.20;99.90
37594;DHT22;23441;50.856;6.076;2023-02-26T02:30:25;-0.20;99.90
37594;DHT22;23441;50.856;6.076;2023-02-26T02:33:19;-0.20;99.90
37594;DHT22;23441;50.856;6.076;2023-02-26T02:36:00;-0.20;99.90
37594;DHT22;23441;50.856;6.076;2023-02-26T02:41:07;-0.30;99.90
37594;DHT22;23441;50.856;6.076;2023-02-26T02:43:36;-0.30;99.90
37594;DHT22;23441;50.856;6.076;2023-02-26T02:46:06;-0.30;99.90
37594;DHT22;23441;50.856;6.076;2023-02-26T02:48:38;-0.30;99.90
37594;DHT22;23441;50.856;6.076;2023-02-26T02:51:15;-0.30;99.90
37594;DHT22;23441;50.856;6.076;2023-02-26T02:53:54;-0.30;99.90
37594;DHT22;23441;50.856;6.076;2023-02-26T02:56:34;-0.30;99.90
37594;DHT22;23441;50.856;6.076;2023-02-26T02:59:17;-0.30;99.90
37594;DHT22;23441;50.856;6.076;2023-02-26T03:01:48;-0.30;99.90
37594;DHT22;23441;50.856;6.076;2023-02-26T03:04:15;-0.40;99.90
37594;DHT22;23441;50.856;6.076;2023-02-26T03:06:42;-0.40;99.90
37594;DHT22;23441;50.856;6.076;2023-02-26T03:09:11;-0.50;99.90
37594;DHT22;23441;50.856;6.076;2023-02-26T03:11:38;-0.50;99.90
37594;DHT22;23441;50.856;6.076;2023-02-26T03:14:04;-0.50;99.90
37594;DHT22;23441;50.856;6.076;2023-02-26T03:17:04;-0.60;99.90
37594;DHT22;23441;50.856;6.076;2023-02-26T03:22:17;-0.60;99.90
37594;DHT22;23441;50.856;6.076;2023-02-26T03:25:08;-0.70;99.90
37594;DHT22;23441;50.856;6.076;2023-02-26T03:30:26;-0.70;99.90
37594;DHT22;23441;50.856;6.076;2023-02-26T03:35:46;-0.70;99.90
37594;DHT22;23441;50.856;6.076;2023-02-26T03:38:27;-0.70;99.90
37594;DHT22;23441;50.856;6.076;2023-02-26T03:41:03;-0.70;99.90
37594;DHT22;23441;50.856;6.076;2023-02-26T03:43:46;-0.80;99.90
37594;DHT22;23441;50.856;6.076;2023-02-26T03:46:17;-0.80;99.90
37594;DHT22;23441;50.856;6.076;2023-02-26T03:48:45;-0.80;99.90
37594;DHT22;23441;50.856;6.076;2023-02-26T03:51:13;-0.90;99.90
37594;DHT22;23441;50.856;6.076;2023-02-26T03:53:51;-0.90;99.90
37594;DHT22;23441;50.856;6.076;2023-02-26T03:56:28;-0.90;99.90
37594;DHT22;23441;50.856;6.076;2023-02-26T03:58:55;-0.90;99.90
37594;DHT22;23441;50.856;6.076;2023-02-26T04:01:34;-0.90;99.90
37594;DHT22;23441;50.856;6.076;2023-02-26T04:04:05;-1.00;99.90
37594;DHT22;23441;50.856;6.076;2023-02-26T04:06:32;-1.00;99.90
37594;DHT22;23441;50.856;6.076;2023-02-26T04:08:59;-0.90;99.90
37594;DHT22;23441;50.856;6.076;2023-02-26T04:11:26;-0.90;99.90
37594;DHT22;23441;50.856;6.076;2023-02-26T04:13:51;-1.00;99.90
37594;DHT22;23441;50.856;6.076;2023-02-26T04:16:17;-1.00;99.90
37594;DHT22;23441;50.856;6.076;2023-02-26T04:18:43;-1.00;99.90
37594;DHT22;23441;50.856;6.076;2023-02-26T04:21:13;-1.00;99.90
37594;DHT22;23441;50.856;6.076;2023-02-26T04:23:40;-1.00;99.90
37594;DHT22;23441;50.856;6.076;2023-02-26T04:26:06;-1.00;99.90
37594;DHT22;23441;50.856;6.076;2023-02-26T04:28:32;-1.10;99.90
37594;DHT22;23441;50.856;6.076;2023-02-26T04:30:59;-1.00;99.90
37594;DHT22;23441;50.856;6.076;2023-02-26T04:33:25;-1.00;99.90
37594;DHT22;23441;50.856;6.076;2023-02-26T04:35:51;-1.00;99.90
37594;DHT22;23441;50.856;6.076;2023-02-26T04:38:17;-1.10;99.90
37594;DHT22;23441;50.856;6.076;2023-02-26T04:40:42;-1.10;99.90
37594;DHT22;23441;50.856;6.076;2023-02-26T04:43:08;-1.10;99.90
37594;DHT22;23441;50.856;6.076;2023-02-26T04:45:34;-1.10;99.90
37594;DHT22;23441;50.856;6.076;2023-02-26T04:47:59;-1.10;99.90
37594;DHT22;23441;50.856;6.076;2023-02-26T04:50:25;-1.20;99.90
37594;DHT22;23441;50.856;6.076;2023-02-26T04:52:51;-1.10;99.90
37594;DHT22;23441;50.856;6.076;2023-02-26T04:55:16;-1.20;99.90
37594;DHT22;23441;50.856;6.076;2023-02-26T04:57:42;-1.20;99.90
37594;DHT22;23441;50.856;6.076;2023-02-26T05:00:08;-1.30;99.90
37594;DHT22;23441;50.856;6.076;2023-02-26T05:02:34;-1.30;99.90
37594;DHT22;23441;50.856;6.076;2023-02-26T05:05:00;-1.30;99.90
37594;DHT22;23441;50.856;6.076;2023-02-26T05:07:25;-1.30;99.90
37594;DHT22;23441;50.856;6.076;2023-02-26T05:09:51;-1.30;99.90
37594;DHT22;23441;50.856;6.076;2023-02-26T05:12:17;-1.30;99.90
37594;DHT22;23441;50.856;6.076;2023-02-26T05:14:42;-1.30;99.90
37594;DHT22;23441;50.856;6.076;2023-02-26T05:17:08;-1.40;99.90
37594;DHT22;23441;50.856;6.076;2023-02-26T05:19:33;-1.40;99.90
37594;DHT22;23441;50.856;6.076;2023-02-26T05:21:59;-1.40;99.90
37594;DHT22;23441;50.856;6.076;2023-02-26T05:24:25;-1.40;99.90
37594;DHT22;23441;50.856;6.076;2023-02-26T05:26:50;-1.50;99.90
37594;DHT22;23441;50.856;6.076;2023-02-26T05:29:16;-1.50;99.90
37594;DHT22;23441;50.856;6.076;2023-02-26T05:31:41;-1.50;99.90
37594;DHT22;23441;50.856;6.076;2023-02-26T05:34:07;-1.50;99.90
37594;DHT22;23441;50.856;6.076;2023-02-26T05:36:33;-1.50;99.90
37594;DHT22;23441;50.856;6.076;2023-02-26T05:38:59;-1.50;99.90
37594;DHT22;23441;50.856;6.076;2023-02-26T05:41:25;-1.50;99.90
37594;DHT22;23441;50.856;6.076;2023-02-26T05:43:50;-1.50;99.90
37594;DHT22;23441;50.856;6.076;2023-02-26T05:46:16;-1.50;99.90
37594;DHT22;23441;50.856;6.076;2023-02-26T05:48:42;-1.50;99.90
37594;DHT22;23441;50.856;6.076;2023-02-26T05:51:07;-1.50;99.90
37594;DHT22;23441;50.856;6.076;2023-02-26T05:53:34;-1.50;99.90
37594;DHT22;23441;50.856;6.076;2023-02-26T05:56:00;-1.50;99.90
37594;DHT22;23441;50.856;6.076;2023-02-26T05:58:25;-1.60;99.90
37594;DHT22;23441;50.856;6.076;2023-02-26T06:00:51;-1.60;99.90
37594;DHT22;23441;50.856;6.076;2023-02-26T06:03:17;-1.60;99.90
37594;DHT22;23441;50.856;6.076;2023-02-26T06:05:42;-1.60;99.90
37594;DHT22;23441;50.856;6.076;2023-02-26T06:08:08;-1.60;99.90
37594;DHT22;23441;50.856;6.076;2023-02-26T06:10:36;-1.60;99.90
37594;DHT22;23441;50.856;6.076;2023-02-26T06:13:02;-1.70;99.90
37594;DHT22;23441;50.856;6.076;2023-02-26T06:15:27;-1.70;99.90
37594;DHT22;23441;50.856;6.076;2023-02-26T06:17:53;-1.70;99.90
37594;DHT22;23441;50.856;6.076;2023-02-26T06:20:19;-1.60;99.90
37594;DHT22;23441;50.856;6.076;2023-02-26T06:22:44;-1.60;99.90
37594;DHT22;23441;50.856;6.076;2023-02-26T06:25:10;-1.70;99.90
37594;DHT22;23441;50.856;6.076;2023-02-26T06:27:35;-1.70;99.90
37594;DHT22;23441;50.856;6.076;2023-02-26T06:30:02;-1.70;99.90
37594;DHT22;23441;50.856;6.076;2023-02-26T06:32:28;-1.60;99.90
37594;DHT22;23441;50.856;6.076;2023-02-26T06:34:53;-1.60;99.90
37594;DHT22;23441;50.856;6.076;2023-02-26T06:37:19;-1.60;99.90
37594;DHT22;23441;50.856;6.076;2023-02-26T06:39:44;-1.60;99.90
37594;DHT22;23441;50.856;6.076;2023-02-26T06:42:10;-1.50;99.90
37594;DHT22;23441;50.856;6.076;2023-02-26T06:44:36;-1.60;99.90
37594;DHT22;23441;50.856;6.076;2023-02-26T06:47:02;-1.50;99.90
37594;DHT22;23441;50.856;6.076;2023-02-26T06:49:27;-1.50;99.90
37594;DHT22;23441;50.856;6.076;2023-02-26T06:51:53;-1.50;99.90
37594;DHT22;23441;50.856;6.076;2023-02-26T06:54:19;-1.50;99.90
37594;DHT22;23441;50.856;6.076;2023-02-26T06:56:44;-1.50;99.90
37594;DHT22;23441;50.856;6.076;2023-02-26T06:59:10;-1.50;99.90
37594;DHT22;23441;50.856;6.076;2023-02-26T07:01:35;-1.40;99.90
37594;DHT22;23441;50.856;6.076;2023-02-26T07:04:01;-1.40;99.90
37594;DHT22;23441;50.856;6.076;2023-02-26T07:06:27;-1.30;99.90
37594;DHT22;23441;50.856;6.076;2023-02-26T07:08:52;-1.20;99.90
37594;DHT22;23441;50.856;6.076;2023-02-26T07:11:18;-1.00;99.90
37594;DHT22;23441;50.856;6.076;2023-02-26T07:13:43;-1.00;99.90
37594;DHT22;23441;50.856;6.076;2023-02-26T07:16:09;-1.00;99.90
37594;DHT22;23441;50.856;6.076;2023-02-26T07:18:36;-1.00;99.90
37594;DHT22;23441;50.856;6.076;2023-02-26T07:21:03;-1.10;99.90
37594;DHT22;23441;50.856;6.076;2023-02-26T07:23:28;-1.10;99.90
37594;DHT22;23441;50.856;6.076;2023-02-26T07:25:54;-1.10;99.90
37594;DHT22;23441;50.856;6.076;2023-02-26T07:28:21;-1.20;99.90
37594;DHT22;23441;50.856;6.076;2023-02-26T07:30:46;-1.10;99.90
37594;DHT22;23441;50.856;6.076;2023-02-26T07:33:12;-1.10;99.90
37594;DHT22;23441;50.856;6.076;2023-02-26T07:35:38;-1.10;99.90
37594;DHT22;23441;50.856;6.076;2023-02-26T07:38:04;-1.00;99.90
37594;DHT22;23441;50.856;6.076;2023-02-26T07:40:29;-1.00;99.90
37594;DHT22;23441;50.856;6.076;2023-02-26T07:42:55;-1.00;99.90
37594;DHT22;23441;50.856;6.076;2023-02-26T07:45:21;-0.90;99.90
37594;DHT22;23441;50.856;6.076;2023-02-26T07:47:48;-0.90;99.90
37594;DHT22;23441;50.856;6.076;2023-02-26T07:50:14;-0.90;99.90
37594;DHT22;23441;50.856;6.076;2023-02-26T07:52:40;-0.90;99.90
37594;DHT22;23441;50.856;6.076;2023-02-26T07:55:07;-0.70;99.90
37594;DHT22;23441;50.856;6.076;2023-02-26T07:57:33;-0.50;99.90
37594;DHT22;23441;50.856;6.076;2023-02-26T07:59:59;-0.10;99.90
37594;DHT22;23441;50.856;6.076;2023-02-26T08:02:24;0.10;99.90
37594;DHT22;23441;50.856;6.076;2023-02-26T08:04:50;0.10;99.90
37594;DHT22;23441;50.856;6.076;2023-02-26T08:07:16;0.20;99.90
37594;DHT22;23441;50.856;6.076;2023-02-26T08:09:41;0.20;99.90
37594;DHT22;23441;50.856;6.076;2023-02-26T08:12:07;0.20;99.90
37594;DHT22;23441;50.856;6.076;2023-02-26T08:14:33;0.20;99.90
37594;DHT22;23441;50.856;6.076;2023-02-26T08:16:59;0.10;99.90
37594;DHT22;23441;50.856;6.076;2023-02-26T08:19:24;0.10;99.90
37594;DHT22;23441;50.856;6.076;2023-02-26T08:21:50;0.00;99.90
37594;DHT22;23441;50.856;6.076;2023-02-26T08:24:16;-0.10;99.90
37594;DHT22;23441;50.856;6.076;2023-02-26T08:26:41;-0.10;99.90
37594;DHT22;23441;50.856;6.076;2023-02-26T08:29:07;-0.10;99.90
37594;DHT22;23441;50.856;6.076;2023-02-26T08:31:33;-0.20;99.90
37594;DHT22;23441;50.856;6.076;2023-02-26T08:33:59;-0.10;99.90
37594;DHT22;23441;50.856;6.076;2023-02-26T08:36:25;-0.10;99.90
37594;DHT22;23441;50.856;6.076;2023-02-26T08:38:52;0.00;99.90
37594;DHT22;23441;50.856;6.076;2023-02-26T08:41:18;0.00;99.90
37594;DHT22;23441;50.856;6.076;2023-02-26T08:43:43;0.00;99.90
37594;DHT22;23441;50.856;6.076;2023-02-26T08:46:09;0.00;99.90
37594;DHT22;23441;50.856;6.076;2023-02-26T08:48:35;0.00;99.90
37594;DHT22;23441;50.856;6.076;2023-02-26T08:51:00;-0.10;99.90
37594;DHT22;23441;50.856;6.076;2023-02-26T08:53:26;-0.10;99.90
37594;DHT22;23441;50.856;6.076;2023-02-26T08:55:52;0.00;99.90
37594;DHT22;23441;50.856;6.076;2023-02-26T08:58:18;0.10;99.90
37594;DHT22;23441;50.856;6.076;2023-02-26T09:00:44;0.10;99.90
37594;DHT22;23441;50.856;6.076;2023-02-26T09:03:10;0.10;99.90
37594;DHT22;23441;50.856;6.076;2023-02-26T09:05:36;0.10;99.90
37594;DHT22;23441;50.856;6.076;2023-02-26T09:08:02;0.20;99.90
37594;DHT22;23441;50.856;6.076;2023-02-26T09:10:28;0.20;99.90
37594;DHT22;23441;50.856;6.076;2023-02-26T09:12:54;0.20;99.90
37594;DHT22;23441;50.856;6.076;2023-02-26T09:15:20;0.20;99.90
37594;DHT22;23441;50.856;6.076;2023-02-26T09:17:45;0.30;99.90
37594;DHT22;23441;50.856;6.076;2023-02-26T09:20:13;0.30;99.90
37594;DHT22;23441;50.856;6.076;2023-02-26T09:22:39;0.20;99.90
37594;DHT22;23441;50.856;6.076;2023-02-26T09:25:05;0.30;99.90
37594;DHT22;23441;50.856;6.076;2023-02-26T09:27:32;0.40;99.90
37594;DHT22;23441;50.856;6.076;2023-02-26T09:29:58;0.40;99.90
37594;DHT22;23441;50.856;6.076;2023-02-26T09:32:24;0.50;99.90
37594;DHT22;23441;50.856;6.076;2023-02-26T09:34:51;0.60;99.90
37594;DHT22;23441;50.856;6.076;2023-02-26T09:37:17;0.80;99.90
37594;DHT22;23441;50.856;6.076;2023-02-26T09:39:43;0.80;99.90
37594;DHT22;23441;50.856;6.076;2023-02-26T09:45:39;0.80;99.90
37594;DHT22;23441;50.856;6.076;2023-02-26T09:48:06;0.90;99.90
37594;DHT22;23441;50.856;6.076;2023-02-26T09:50:42;0.90;99.90
37594;DHT22;23441;50.856;6.076;2023-02-26T09:53:30;0.90;99.90
37594;DHT22;23441;50.856;6.076;2023-02-26T09:56:17;1.00;99.90
37594;DHT22;23441;50.856;6.076;2023-02-26T09:58:44;1.10;99.90
37594;DHT22;23441;50.856;6.076;2023-02-26T10:03:53;1.30;99.90
37594;DHT22;23441;50.856;6.076;2023-02-26T10:11:52;1.30;99.90
37594;DHT22;23441;50.856;6.076;2023-02-26T10:14:40;1.30;99.90
37594;DHT22;23441;50.856;6.076;2023-02-26T10:17:15;1.30;99.90
37594;DHT22;23441;50.856;6.076;2023-02-26T10:19:46;1.40;99.90
37594;DHT22;23441;50.856;6.076;2023-02-26T10:22:34;1.50;99.90
37594;DHT22;23441;50.856;6.076;2023-02-26T10:25:21;1.60;99.90
37594;DHT22;23441;50.856;6.076;2023-02-26T10:30:38;1.60;99.90
37594;DHT22;23441;50.856;6.076;2023-02-26T10:33:23;1.70;99.90
37594;DHT22;23441;50.856;6.076;2023-02-26T10:35:53;1.60;99.90
37594;DHT22;23441;50.856;6.076;2023-02-26T10:38:29;1.70;99.90
37594;DHT22;23441;50.856;6.076;2023-02-26T10:41:02;1.70;99.90
37594;DHT22;23441;50.856;6.076;2023-02-26T10:43:36;1.70;99.90
37594;DHT22;23441;50.856;6.076;2023-02-26T10:51:36;1.70;99.90
37594;DHT22;23441;50.856;6.076;2023-02-26T10:56:38;1.80;99.90
37594;DHT22;23441;50.856;6.076;2023-02-26T10:59:04;1.60;99.90
37594;DHT22;23441;50.856;6.076;2023-02-26T11:01:30;1.50;99.90
37594;DHT22;23441;50.856;6.076;2023-02-26T11:04:10;1.60;99.90
37594;DHT22;23441;50.856;6.076;2023-02-26T11:06:40;1.80;99.90
37594;DHT22;23441;50.856;6.076;2023-02-26T11:09:40;1.80;99.90
37594;DHT22;23441;50.856;6.076;2023-02-26T11:12:13;1.90;99.90
37594;DHT22;23441;50.856;6.076;2023-02-26T11:14:41;2.10;99.90
37594;DHT22;23441;50.856;6.076;2023-02-26T11:17:32;2.00;99.90
37594;DHT22;23441;50.856;6.076;2023-02-26T11:20:16;1.90;99.90
37594;DHT22;23441;50.856;6.076;2023-02-26T11:22:49;2.00;99.90
37594;DHT22;23441;50.856;6.076;2023-02-26T11:25:19;2.10;99.90
37594;DHT22;23441;50.856;6.076;2023-02-26T11:28:00;2.10;99.90
37594;DHT22;23441;50.856;6.076;2023-02-26T11:30:30;2.20;99.90
37594;DHT22;23441;50.856;6.076;2023-02-26T11:32:58;2.10;99.90
37594;DHT22;23441;50.856;6.076;2023-02-26T11:35:28;2.00;99.90
37594;DHT22;23441;50.856;6.076;2023-02-26T11:38:01;1.90;99.90
37594;DHT22;23441;50.856;6.076;2023-02-26T11:40:39;2.00;99.90
37594;DHT22;23441;50.856;6.076;2023-02-26T11:43:18;2.20;99.90
37594;DHT22;23441;50.856;6.076;2023-02-26T11:45:48;2.10;99.90
37594;DHT22;23441;50.856;6.076;2023-02-26T11:48:22;2.10;99.90
37594;DHT22;23441;50.856;6.076;2023-02-26T11:50:52;2.10;99.90
37594;DHT22;23441;50.856;6.076;2023-02-26T11:56:13;2.30;99.90
37594;DHT22;23441;50.856;6.076;2023-02-26T11:58:42;2.30;99.90
37594;DHT22;23441;50.856;6.076;2023-02-26T12:01:12;2.30;99.90
37594;DHT22;23441;50.856;6.076;2023-02-26T12:03:42;2.40;99.90
37594;DHT22;23441;50.856;6.076;2023-02-26T12:06:20;2.30;99.90
37594;DHT22;23441;50.856;6.076;2023-02-26T12:08:46;2.20;99.90
37594;DHT22;23441;50.856;6.076;2023-02-26T12:14:27;2.50;99.90
37594;DHT22;23441;50.856;6.076;2023-02-26T12:23:26;2.80;99.90
37594;DHT22;23441;50.856;6.076;2023-02-26T12:41:47;3.90;99.60
37594;DHT22;23441;50.856;6.076;2023-02-26T12:47:13;3.80;98.60
37594;DHT22;23441;50.856;6.076;2023-02-26T12:55:26;3.70;99.30
37594;DHT22;23441;50.856;6.076;2023-02-26T13:00:39;3.90;97.20
37594;DHT22;23441;50.856;6.076;2023-02-26T13:11:41;3.30;97.50
37594;DHT22;23441;50.856;6.076;2023-02-26T13:19:30;4.50;97.50
37594;DHT22;23441;50.856;6.076;2023-02-26T13:22:21;4.90;98.40
37594;DHT22;23441;50.856;6.076;2023-02-26T13:24:56;4.80;97.20
37594;DHT22;23441;50.856;6.076;2023-02-26T13:27:27;4.40;97.30
37594;DHT22;23441;50.856;6.076;2023-02-26T13:32:27;3.70;98.30
37594;DHT22;23441;50.856;6.076;2023-02-26T13:35:04;3.70;96.10
37594;DHT22;23441;50.856;6.076;2023-02-26T13:37:31;3.60;97.20
37594;DHT22;23441;50.856;6.076;2023-02-26T13:42:41;3.60;98.10
37594;DHT22;23441;50.856;6.076;2023-02-26T13:48:21;4.00;96.10
37594;DHT22;23441;50.856;6.076;2023-02-26T13:58:42;3.80;95.00
37594;DHT22;23441;50.856;6.076;2023-02-26T14:01:18;3.90;95.10
37594;DHT22;23441;50.856;6.076;2023-02-26T14:03:52;4.00;95.20
37594;DHT22;23441;50.856;6.076;2023-02-26T14:12:18;4.20;95.20
37594;DHT22;23441;50.856;6.076;2023-02-26T14:17:51;4.00;94.90
37594;DHT22;23441;50.856;6.076;2023-02-26T14:20:29;3.70;93.80
37594;DHT22;23441;50.856;6.076;2023-02-26T14:23:44;3.50;94.10
37594;DHT22;23441;50.856;6.076;2023-02-26T14:26:05;3.50;94.80
37594;DHT22;23441;50.856;6.076;2023-02-26T14:29:37;3.60;95.30
37594;DHT22;23441;50.856;6.076;2023-02-26T14:34:19;3.90;95.30
37594;DHT22;23441;50.856;6.076;2023-02-26T14:37:02;3.90;94.10
37594;DHT22;23441;50.856;6.076;2023-02-26T14:39:47;3.80;94.70
37594;DHT22;23441;50.856;6.076;2023-02-26T14:42:21;3.70;93.90
37594;DHT22;23441;50.856;6.076;2023-02-26T14:44:53;3.70;94.30
37594;DHT22;23441;50.856;6.076;2023-02-26T14:47:19;3.60;92.60
37594;DHT22;23441;50.856;6.076;2023-02-26T14:49:46;3.40;93.70
37594;DHT22;23441;50.856;6.076;2023-02-26T14:52:46;3.30;92.90
37594;DHT22;23441;50.856;6.076;2023-02-26T14:57:56;3.00;93.80
37594;DHT22;23441;50.856;6.076;2023-02-26T15:08:45;3.40;94.90
37594;DHT22;23441;50.856;6.076;2023-02-26T15:16:46;3.30;94.30
37594;DHT22;23441;50.856;6.076;2023-02-26T15:19:31;3.20;94.80
37594;DHT22;23441;50.856;6.076;2023-02-26T15:24:48;3.10;93.90
37594;DHT22;23441;50.856;6.076;2023-02-26T15:27:17;3.20;94.40
37594;DHT22;23441;50.856;6.076;2023-02-26T15:29:43;3.20;95.70
37594;DHT22;23441;50.856;6.076;2023-02-26T15:32:21;3.10;94.80
37594;DHT22;23441;50.856;6.076;2023-02-26T15:34:54;3.00;94.90
37594;DHT22;23441;50.856;6.076;2023-02-26T15:37:22;3.00;95.20
37594;DHT22;23441;50.856;6.076;2023-02-26T15:39:49;3.10;95.00
37594;DHT22;23441;50.856;6.076;2023-02-26T15:42:17;3.20;96.10
37594;DHT22;23441;50.856;6.076;2023-02-26T15:44:44;3.30;95.50
37594;DHT22;23441;50.856;6.076;2023-02-26T15:47:10;3.30;94.90
37594;DHT22;23441;50.856;6.076;2023-02-26T15:49:38;3.30;95.90
37594;DHT22;23441;50.856;6.076;2023-02-26T15:52:07;3.30;95.00
37594;DHT22;23441;50.856;6.076;2023-02-26T15:55:01;3.20;95.30
37594;DHT22;23441;50.856;6.076;2023-02-26T15:57:26;3.10;94.50
37594;DHT22;23441;50.856;6.076;2023-02-26T15:59:59;3.10;94.90
37594;DHT22;23441;50.856;6.076;2023-02-26T16:02:29;3.10;94.90
37594;DHT22;23441;50.856;6.076;2023-02-26T16:04:55;3.00;94.60
37594;DHT22;23441;50.856;6.076;2023-02-26T16:07:21;3.00;94.70
37594;DHT22;23441;50.856;6.076;2023-02-26T16:09:49;3.00;94.80
37594;DHT22;23441;50.856;6.076;2023-02-26T16:12:21;3.00;95.00
37594;DHT22;23441;50.856;6.076;2023-02-26T16:14:58;2.90;95.00
37594;DHT22;23441;50.856;6.076;2023-02-26T16:17:31;2.90;94.60
37594;DHT22;23441;50.856;6.076;2023-02-26T16:20:03;2.90;95.10
37594;DHT22;23441;50.856;6.076;2023-02-26T16:22:34;2.90;94.20
37594;DHT22;23441;50.856;6.076;2023-02-26T16:25:21;2.90;94.40
37594;DHT22;23441;50.856;6.076;2023-02-26T16:27:55;2.80;95.00
37594;DHT22;23441;50.856;6.076;2023-02-26T16:30:29;2.80;95.20
37594;DHT22;23441;50.856;6.076;2023-02-26T16:32:57;2.70;95.30
37594;DHT22;23441;50.856;6.076;2023-02-26T16:35:30;2.70;95.30
37594;DHT22;23441;50.856;6.076;2023-02-26T16:37:59;2.70;96.10
37594;DHT22;23441;50.856;6.076;2023-02-26T16:40:35;2.60;96.10
37594;DHT22;23441;50.856;6.076;2023-02-26T16:46:02;2.50;96.40
37594;DHT22;23441;50.856;6.076;2023-02-26T16:51:11;2.40;96.60
37594;DHT22;23441;50.856;6.076;2023-02-26T16:53:58;2.40;96.20
37594;DHT22;23441;50.856;6.076;2023-02-26T16:56:30;2.40;96.50
37594;DHT22;23441;50.856;6.076;2023-02-26T16:59:27;2.40;97.50
37594;DHT22;23441;50.856;6.076;2023-02-26T17:01:56;2.30;97.30
37594;DHT22;23441;50.856;6.076;2023-02-26T17:04:34;2.30;96.80
37594;DHT22;23441;50.856;6.076;2023-02-26T17:07:02;2.30;96.70
37594;DHT22;23441;50.856;6.076;2023-02-26T17:09:43;2.20;97.10
37594;DHT22;23441;50.856;6.076;2023-02-26T17:14:43;2.10;96.90
37594;DHT22;23441;50.856;6.076;2023-02-26T17:17:08;2.10;97.00
37594;DHT22;23441;50.856;6.076;2023-02-26T17:19:34;2.10;97.40
37594;DHT22;23441;50.856;6.076;2023-02-26T17:22:00;2.00;96.90
37594;DHT22;23441;50.856;6.076;2023-02-26T17:24:35;2.00;97.30
37594;DHT22;23441;50.856;6.076;2023-02-26T17:27:04;2.00;97.30
37594;DHT22;23441;50.856;6.076;2023-02-26T17:29:36;1.90;97.70
37594;DHT22;23441;50.856;6.076;2023-02-26T17:32:08;1.90;97.40
37594;DHT22;23441;50.856;6.076;2023-02-26T17:34:35;1.80;97.80
37594;DHT22;23441;50.856;6.076;2023-02-26T17:37:00;1.80;97.70
37594;DHT22;23441;50.856;6.076;2023-02-26T17:39:30;1.70;97.90
37594;DHT22;23441;50.856;6.076;2023-02-26T17:41:56;1.70;98.20
37594;DHT22;23441;50.856;6.076;2023-02-26T17:44:22;1.60;98.60
37594;DHT22;23441;50.856;6.076;2023-02-26T17:46:47;1.60;98.60
37594;DHT22;23441;50.856;6.076;2023-02-26T17:49:13;1.60;98.70
37594;DHT22;23441;50.856;6.076;2023-02-26T17:51:40;1.50;98.80
37594;DHT22;23441;50.856;6.076;2023-02-26T17:54:05;1.40;99.20
37594;DHT22;23441;50.856;6.076;2023-02-26T17:56:34;1.50;98.80
37594;DHT22;23441;50.856;6.076;2023-02-26T17:59:02;1.50;98.80
37594;DHT22;23441;50.856;6.076;2023-02-26T18:01:29;1.50;98.80
37594;DHT22;23441;50.856;6.076;2023-02-26T18:03:56;1.50;98.80
37594;DHT22;23441;50.856;6.076;2023-02-26T18:06:22;1.50;99.10
37594;DHT22;23441;50.856;6.076;2023-02-26T18:08:48;1.30;99.50
37594;DHT22;23441;50.856;6.076;2023-02-26T18:11:15;1.30;99.40
37594;DHT22;23441;50.856;6.076;2023-02-26T18:13:41;1.30;99.90
37594;DHT22;23441;50.856;6.076;2023-02-26T18:16:17;1.20;99.90
37594;DHT22;23441;50.856;6.076;2023-02-26T18:18:44;1.20;99.90
37594;DHT22;23441;50.856;6.076;2023-02-26T18:21:09;1.20;99.90
37594;DHT22;23441;50.856;6.076;2023-02-26T18:23:35;1.20;99.90
37594;DHT22;23441;50.856;6.076;2023-02-26T18:26:01;1.10;99.90
37594;DHT22;23441;50.856;6.076;2023-02-26T18:28:28;1.10;99.90
37594;DHT22;23441;50.856;6.076;2023-02-26T18:30:55;1.00;99.90
37594;DHT22;23441;50.856;6.076;2023-02-26T18:33:22;0.90;99.90
37594;DHT22;23441;50.856;6.076;2023-02-26T18:35:50;0.80;99.90
37594;DHT22;23441;50.856;6.076;2023-02-26T18:38:19;0.80;99.90
37594;DHT22;23441;50.856;6.076;2023-02-26T18:40:47;0.80;99.90
37594;DHT22;23441;50.856;6.076;2023-02-26T18:43:13;0.70;99.90
37594;DHT22;23441;50.856;6.076;2023-02-26T18:45:44;0.70;99.90
37594;DHT22;23441;50.856;6.076;2023-02-26T18:48:12;0.70;99.90